<?xml version="1.0" encoding="UTF-8" standalone="no" ?>
<gpx xmlns="http://www.topografix.com/GPX/1/1" xmlns:xsi="http://www.w3.org/2001/XMLSchema-instance" xsi:schemaLocation="http://www.topografix.com/GPX/1/1 http://www.topografix.com/GPX/1/1/gpx.xsd" version="1.1" creator="VisuGPX - https://www.visugpx.com">
  <metadata>
    <name>Guebwiller-Croix de Mission-Dreibanstein</name>
    <desc><![CDATA[Petite ballade au dessus de Guebwiller]]></desc>
  </metadata>
  <trk>
    <name><![CDATA[29 déc. 2016 à 13:53:43 Dreibanstein Copie Copie]]></name>
    <cmt><![CDATA[29 déc. 2016 à 13:53:43]]></cmt>
    <trkseg>
      <trkpt lat="47.91243" lon="7.21052">
        <ele>296</ele>
        <time>2016-12-29T12:53:43Z</time>
      </trkpt>
      <trkpt lat="47.91245" lon="7.21034">
        <ele>296</ele>
        <time>2016-12-29T12:53:56Z</time>
      </trkpt>
      <trkpt lat="47.91257" lon="7.21011">
        <ele>296</ele>
        <time>2016-12-29T12:54:33Z</time>
      </trkpt>
      <trkpt lat="47.91277" lon="7.2099">
        <ele>297</ele>
        <time>2016-12-29T12:54:54Z</time>
      </trkpt>
      <trkpt lat="47.9128" lon="7.20987">
        <ele>297</ele>
        <time>2016-12-29T12:55:01Z</time>
      </trkpt>
      <trkpt lat="47.91312" lon="7.20943">
        <ele>298</ele>
        <time>2016-12-29T12:55:35Z</time>
      </trkpt>
      <trkpt lat="47.91341" lon="7.20909">
        <ele>299</ele>
        <time>2016-12-29T12:56:07Z</time>
      </trkpt>
      <trkpt lat="47.91379" lon="7.20884">
        <ele>300</ele>
        <time>2016-12-29T12:56:42Z</time>
      </trkpt>
      <trkpt lat="47.91395" lon="7.20879">
        <ele>300</ele>
        <time>2016-12-29T12:56:57Z</time>
      </trkpt>
      <trkpt lat="47.91401" lon="7.20872">
        <ele>300</ele>
        <time>2016-12-29T12:57:05Z</time>
      </trkpt>
      <trkpt lat="47.91406" lon="7.20875">
        <ele>300</ele>
        <time>2016-12-29T12:57:10Z</time>
      </trkpt>
      <trkpt lat="47.9141" lon="7.20884">
        <ele>300</ele>
        <time>2016-12-29T12:57:13Z</time>
      </trkpt>
      <trkpt lat="47.91422" lon="7.2093">
        <ele>300</ele>
        <time>2016-12-29T12:57:46Z</time>
      </trkpt>
      <trkpt lat="47.91425" lon="7.20952">
        <ele>301</ele>
        <time>2016-12-29T12:57:56Z</time>
      </trkpt>
      <trkpt lat="47.91424" lon="7.20975">
        <ele>302</ele>
        <time>2016-12-29T12:58:11Z</time>
      </trkpt>
      <trkpt lat="47.91419" lon="7.20985">
        <ele>303</ele>
        <time>2016-12-29T12:58:19Z</time>
      </trkpt>
      <trkpt lat="47.91387" lon="7.21041">
        <ele>307</ele>
        <time>2016-12-29T12:58:54Z</time>
      </trkpt>
      <trkpt lat="47.91363" lon="7.2107">
        <ele>311</ele>
        <time>2016-12-29T12:59:28Z</time>
      </trkpt>
      <trkpt lat="47.91359" lon="7.21079">
        <ele>312</ele>
        <time>2016-12-29T12:59:36Z</time>
      </trkpt>
      <trkpt lat="47.91351" lon="7.21081">
        <ele>312</ele>
        <time>2016-12-29T12:59:43Z</time>
      </trkpt>
      <trkpt lat="47.91345" lon="7.21088">
        <ele>312</ele>
        <time>2016-12-29T12:59:51Z</time>
      </trkpt>
      <trkpt lat="47.9134" lon="7.21098">
        <ele>313</ele>
        <time>2016-12-29T12:59:57Z</time>
      </trkpt>
      <trkpt lat="47.91315" lon="7.2113">
        <ele>316</ele>
        <time>2016-12-29T13:00:28Z</time>
      </trkpt>
      <trkpt lat="47.91309" lon="7.21136">
        <ele>316</ele>
        <time>2016-12-29T13:00:34Z</time>
      </trkpt>
      <trkpt lat="47.91306" lon="7.2114">
        <ele>317</ele>
        <time>2016-12-29T13:00:45Z</time>
      </trkpt>
      <trkpt lat="47.913" lon="7.2115">
        <ele>317</ele>
        <time>2016-12-29T13:00:52Z</time>
      </trkpt>
      <trkpt lat="47.91299" lon="7.21165">
        <ele>320</ele>
        <time>2016-12-29T13:01:01Z</time>
      </trkpt>
      <trkpt lat="47.91307" lon="7.21164">
        <ele>321</ele>
        <time>2016-12-29T13:01:06Z</time>
      </trkpt>
      <trkpt lat="47.91321" lon="7.21154">
        <ele>323</ele>
        <time>2016-12-29T13:01:22Z</time>
      </trkpt>
      <trkpt lat="47.91335" lon="7.21145">
        <ele>324</ele>
        <time>2016-12-29T13:01:40Z</time>
      </trkpt>
      <trkpt lat="47.91342" lon="7.21139">
        <ele>325</ele>
        <time>2016-12-29T13:01:47Z</time>
      </trkpt>
      <trkpt lat="47.9135" lon="7.21142">
        <ele>326</ele>
        <time>2016-12-29T13:01:58Z</time>
      </trkpt>
      <trkpt lat="47.91345" lon="7.21152">
        <ele>327</ele>
        <time>2016-12-29T13:02:09Z</time>
      </trkpt>
      <trkpt lat="47.9134" lon="7.21161">
        <ele>328</ele>
        <time>2016-12-29T13:02:19Z</time>
      </trkpt>
      <trkpt lat="47.91336" lon="7.21172">
        <ele>330</ele>
        <time>2016-12-29T13:02:29Z</time>
      </trkpt>
      <trkpt lat="47.91324" lon="7.21187">
        <ele>332</ele>
        <time>2016-12-29T13:02:46Z</time>
      </trkpt>
      <trkpt lat="47.91312" lon="7.21204">
        <ele>332</ele>
        <time>2016-12-29T13:03:01Z</time>
      </trkpt>
      <trkpt lat="47.91286" lon="7.21247">
        <ele>337</ele>
        <time>2016-12-29T13:03:38Z</time>
      </trkpt>
      <trkpt lat="47.91262" lon="7.21276">
        <ele>340</ele>
        <time>2016-12-29T13:04:14Z</time>
      </trkpt>
      <trkpt lat="47.91256" lon="7.21282">
        <ele>340</ele>
        <time>2016-12-29T13:04:19Z</time>
      </trkpt>
      <trkpt lat="47.91233" lon="7.21319">
        <ele>343</ele>
        <time>2016-12-29T13:04:49Z</time>
      </trkpt>
      <trkpt lat="47.91216" lon="7.21348">
        <ele>346</ele>
        <time>2016-12-29T13:05:20Z</time>
      </trkpt>
      <trkpt lat="47.91204" lon="7.21358">
        <ele>346</ele>
        <time>2016-12-29T13:05:33Z</time>
      </trkpt>
      <trkpt lat="47.91193" lon="7.2137">
        <ele>346</ele>
        <time>2016-12-29T13:05:48Z</time>
      </trkpt>
      <trkpt lat="47.9117" lon="7.21401">
        <ele>347</ele>
        <time>2016-12-29T13:06:15Z</time>
      </trkpt>
      <trkpt lat="47.91163" lon="7.21403">
        <ele>347</ele>
        <time>2016-12-29T13:06:25Z</time>
      </trkpt>
      <trkpt lat="47.91156" lon="7.21414">
        <ele>348</ele>
        <time>2016-12-29T13:06:34Z</time>
      </trkpt>
      <trkpt lat="47.91141" lon="7.2143">
        <ele>350</ele>
        <time>2016-12-29T13:06:57Z</time>
      </trkpt>
      <trkpt lat="47.91124" lon="7.21448">
        <ele>351</ele>
        <time>2016-12-29T13:07:17Z</time>
      </trkpt>
      <trkpt lat="47.91117" lon="7.21456">
        <ele>352</ele>
        <time>2016-12-29T13:07:25Z</time>
      </trkpt>
      <trkpt lat="47.91114" lon="7.21465">
        <ele>352</ele>
        <time>2016-12-29T13:07:31Z</time>
      </trkpt>
      <trkpt lat="47.91108" lon="7.21472">
        <ele>354</ele>
        <time>2016-12-29T13:07:39Z</time>
      </trkpt>
      <trkpt lat="47.91094" lon="7.21505">
        <ele>357</ele>
        <time>2016-12-29T13:08:10Z</time>
      </trkpt>
      <trkpt lat="47.91085" lon="7.21522">
        <ele>358</ele>
        <time>2016-12-29T13:08:24Z</time>
      </trkpt>
      <trkpt lat="47.9106" lon="7.21556">
        <ele>357</ele>
        <time>2016-12-29T13:08:55Z</time>
      </trkpt>
      <trkpt lat="47.91041" lon="7.21573">
        <ele>361</ele>
        <time>2016-12-29T13:09:16Z</time>
      </trkpt>
      <trkpt lat="47.91035" lon="7.2158">
        <ele>361</ele>
        <time>2016-12-29T13:09:20Z</time>
      </trkpt>
      <trkpt lat="47.9103" lon="7.21585">
        <ele>360</ele>
        <time>2016-12-29T13:09:25Z</time>
      </trkpt>
      <trkpt lat="47.91028" lon="7.21594">
        <ele>357</ele>
        <time>2016-12-29T13:09:32Z</time>
      </trkpt>
      <trkpt lat="47.9102" lon="7.21609">
        <ele>356</ele>
        <time>2016-12-29T13:09:43Z</time>
      </trkpt>
      <trkpt lat="47.91018" lon="7.21617">
        <ele>356</ele>
        <time>2016-12-29T13:09:46Z</time>
      </trkpt>
      <trkpt lat="47.91013" lon="7.21622">
        <ele>360</ele>
        <time>2016-12-29T13:09:55Z</time>
      </trkpt>
      <trkpt lat="47.90999" lon="7.21643">
        <ele>361</ele>
        <time>2016-12-29T13:10:10Z</time>
      </trkpt>
      <trkpt lat="47.90993" lon="7.21661">
        <ele>354</ele>
        <time>2016-12-29T13:10:23Z</time>
      </trkpt>
      <trkpt lat="47.90989" lon="7.21672">
        <ele>353</ele>
        <time>2016-12-29T13:10:31Z</time>
      </trkpt>
      <trkpt lat="47.90981" lon="7.2169">
        <ele>353</ele>
        <time>2016-12-29T13:10:40Z</time>
      </trkpt>
      <trkpt lat="47.90973" lon="7.21711">
        <ele>358</ele>
        <time>2016-12-29T13:10:56Z</time>
      </trkpt>
      <trkpt lat="47.90969" lon="7.21718">
        <ele>355</ele>
        <time>2016-12-29T13:11:01Z</time>
      </trkpt>
      <trkpt lat="47.90964" lon="7.21727">
        <ele>355</ele>
        <time>2016-12-29T13:11:09Z</time>
      </trkpt>
      <trkpt lat="47.9096" lon="7.21736">
        <ele>356</ele>
        <time>2016-12-29T13:11:16Z</time>
      </trkpt>
      <trkpt lat="47.90955" lon="7.21745">
        <ele>356</ele>
        <time>2016-12-29T13:11:22Z</time>
      </trkpt>
      <trkpt lat="47.90932" lon="7.21799">
        <ele>347</ele>
        <time>2016-12-29T13:11:53Z</time>
      </trkpt>
      <trkpt lat="47.90931" lon="7.21807">
        <ele>346</ele>
        <time>2016-12-29T13:11:58Z</time>
      </trkpt>
      <trkpt lat="47.90921" lon="7.21836">
        <ele>347</ele>
        <time>2016-12-29T13:12:20Z</time>
      </trkpt>
      <trkpt lat="47.90916" lon="7.21843">
        <ele>346</ele>
        <time>2016-12-29T13:12:29Z</time>
      </trkpt>
      <trkpt lat="47.90903" lon="7.21886">
        <ele>344</ele>
        <time>2016-12-29T13:12:55Z</time>
      </trkpt>
      <trkpt lat="47.90895" lon="7.21925">
        <ele>345</ele>
        <time>2016-12-29T13:13:17Z</time>
      </trkpt>
      <trkpt lat="47.90888" lon="7.21948">
        <ele>344</ele>
        <time>2016-12-29T13:13:34Z</time>
      </trkpt>
      <trkpt lat="47.90887" lon="7.21957">
        <ele>344</ele>
        <time>2016-12-29T13:13:37Z</time>
      </trkpt>
      <trkpt lat="47.90884" lon="7.21969">
        <ele>345</ele>
        <time>2016-12-29T13:13:43Z</time>
      </trkpt>
      <trkpt lat="47.90877" lon="7.21975">
        <ele>346</ele>
        <time>2016-12-29T13:13:51Z</time>
      </trkpt>
      <trkpt lat="47.90859" lon="7.21991">
        <ele>344</ele>
        <time>2016-12-29T13:14:13Z</time>
      </trkpt>
      <trkpt lat="47.90841" lon="7.22013">
        <ele>345</ele>
        <time>2016-12-29T13:14:44Z</time>
      </trkpt>
      <trkpt lat="47.90828" lon="7.22028">
        <ele>345</ele>
        <time>2016-12-29T13:15:09Z</time>
      </trkpt>
      <trkpt lat="47.90818" lon="7.22046">
        <ele>346</ele>
        <time>2016-12-29T13:15:32Z</time>
      </trkpt>
      <trkpt lat="47.90805" lon="7.22085">
        <ele>354</ele>
        <time>2016-12-29T13:16:18Z</time>
      </trkpt>
      <trkpt lat="47.90796" lon="7.22103">
        <ele>360</ele>
        <time>2016-12-29T13:16:36Z</time>
      </trkpt>
      <trkpt lat="47.90786" lon="7.22117">
        <ele>365</ele>
        <time>2016-12-29T13:17:06Z</time>
      </trkpt>
      <trkpt lat="47.90768" lon="7.22154">
        <ele>370</ele>
        <time>2016-12-29T13:17:47Z</time>
      </trkpt>
      <trkpt lat="47.90753" lon="7.22181">
        <ele>377</ele>
        <time>2016-12-29T13:18:23Z</time>
      </trkpt>
      <trkpt lat="47.90752" lon="7.22186">
        <ele>379</ele>
        <time>2016-12-29T13:18:32Z</time>
      </trkpt>
      <trkpt lat="47.9075" lon="7.222">
        <ele>380</ele>
        <time>2016-12-29T13:18:44Z</time>
      </trkpt>
      <trkpt lat="47.90754" lon="7.22207">
        <ele>385</ele>
        <time>2016-12-29T13:19:15Z</time>
      </trkpt>
      <trkpt lat="47.90749" lon="7.22218">
        <ele>386</ele>
        <time>2016-12-29T13:19:27Z</time>
      </trkpt>
      <trkpt lat="47.90741" lon="7.22219">
        <ele>386</ele>
        <time>2016-12-29T13:19:35Z</time>
      </trkpt>
      <trkpt lat="47.90743" lon="7.22223">
        <ele>388</ele>
        <time>2016-12-29T13:19:50Z</time>
      </trkpt>
      <trkpt lat="47.90751" lon="7.22225">
        <ele>389</ele>
        <time>2016-12-29T13:19:54Z</time>
      </trkpt>
      <trkpt lat="47.90759" lon="7.22222">
        <ele>390</ele>
        <time>2016-12-29T13:19:58Z</time>
      </trkpt>
      <trkpt lat="47.90765" lon="7.22216">
        <ele>391</ele>
        <time>2016-12-29T13:20:07Z</time>
      </trkpt>
      <trkpt lat="47.9079" lon="7.22208">
        <ele>390</ele>
        <time>2016-12-29T13:20:33Z</time>
      </trkpt>
      <trkpt lat="47.90822" lon="7.22208">
        <ele>394</ele>
        <time>2016-12-29T13:21:21Z</time>
      </trkpt>
      <trkpt lat="47.90838" lon="7.22203">
        <ele>398</ele>
        <time>2016-12-29T13:21:47Z</time>
      </trkpt>
      <trkpt lat="47.90848" lon="7.22186">
        <ele>398</ele>
        <time>2016-12-29T13:22:05Z</time>
      </trkpt>
      <trkpt lat="47.90861" lon="7.22174">
        <ele>396</ele>
        <time>2016-12-29T13:22:31Z</time>
      </trkpt>
      <trkpt lat="47.90869" lon="7.2217">
        <ele>397</ele>
        <time>2016-12-29T13:22:52Z</time>
      </trkpt>
      <trkpt lat="47.90879" lon="7.22161">
        <ele>397</ele>
        <time>2016-12-29T13:23:21Z</time>
      </trkpt>
      <trkpt lat="47.90886" lon="7.22161">
        <ele>397</ele>
        <time>2016-12-29T13:23:30Z</time>
      </trkpt>
      <trkpt lat="47.90907" lon="7.22167">
        <ele>402</ele>
        <time>2016-12-29T13:24:00Z</time>
      </trkpt>
      <trkpt lat="47.90923" lon="7.22166">
        <ele>405</ele>
        <time>2016-12-29T13:24:24Z</time>
      </trkpt>
      <trkpt lat="47.90936" lon="7.22176">
        <ele>407</ele>
        <time>2016-12-29T13:24:44Z</time>
      </trkpt>
      <trkpt lat="47.90948" lon="7.22171">
        <ele>411</ele>
        <time>2016-12-29T13:25:04Z</time>
      </trkpt>
      <trkpt lat="47.90952" lon="7.22167">
        <ele>412</ele>
        <time>2016-12-29T13:25:15Z</time>
      </trkpt>
      <trkpt lat="47.90961" lon="7.22167">
        <ele>413</ele>
        <time>2016-12-29T13:25:25Z</time>
      </trkpt>
      <trkpt lat="47.90987" lon="7.22166">
        <ele>419</ele>
        <time>2016-12-29T13:26:04Z</time>
      </trkpt>
      <trkpt lat="47.90994" lon="7.22166">
        <ele>419</ele>
        <time>2016-12-29T13:26:11Z</time>
      </trkpt>
      <trkpt lat="47.91014" lon="7.22166">
        <ele>424</ele>
        <time>2016-12-29T13:26:42Z</time>
      </trkpt>
      <trkpt lat="47.91025" lon="7.22176">
        <ele>424</ele>
        <time>2016-12-29T13:26:57Z</time>
      </trkpt>
      <trkpt lat="47.91045" lon="7.22174">
        <ele>426</ele>
        <time>2016-12-29T13:27:12Z</time>
      </trkpt>
      <trkpt lat="47.91051" lon="7.22159">
        <ele>428</ele>
        <time>2016-12-29T13:27:26Z</time>
      </trkpt>
      <trkpt lat="47.9106" lon="7.22149">
        <ele>431</ele>
        <time>2016-12-29T13:27:40Z</time>
      </trkpt>
      <trkpt lat="47.91063" lon="7.22135">
        <ele>432</ele>
        <time>2016-12-29T13:27:52Z</time>
      </trkpt>
      <trkpt lat="47.91064" lon="7.22108">
        <ele>434</ele>
        <time>2016-12-29T13:28:26Z</time>
      </trkpt>
      <trkpt lat="47.9107" lon="7.2209">
        <ele>437</ele>
        <time>2016-12-29T13:29:14Z</time>
      </trkpt>
      <trkpt lat="47.91071" lon="7.22066">
        <ele>438</ele>
        <time>2016-12-29T13:29:43Z</time>
      </trkpt>
      <trkpt lat="47.91076" lon="7.22045">
        <ele>441</ele>
        <time>2016-12-29T13:30:10Z</time>
      </trkpt>
      <trkpt lat="47.91083" lon="7.2204">
        <ele>442</ele>
        <time>2016-12-29T13:30:27Z</time>
      </trkpt>
      <trkpt lat="47.91094" lon="7.22053">
        <ele>444</ele>
        <time>2016-12-29T13:30:52Z</time>
      </trkpt>
      <trkpt lat="47.91093" lon="7.22075">
        <ele>444</ele>
        <time>2016-12-29T13:31:10Z</time>
      </trkpt>
      <trkpt lat="47.91101" lon="7.22077">
        <ele>446</ele>
        <time>2016-12-29T13:31:45Z</time>
      </trkpt>
      <trkpt lat="47.91115" lon="7.22078">
        <ele>448</ele>
        <time>2016-12-29T13:32:02Z</time>
      </trkpt>
      <trkpt lat="47.91144" lon="7.22079">
        <ele>456</ele>
        <time>2016-12-29T13:32:44Z</time>
      </trkpt>
      <trkpt lat="47.91175" lon="7.22076">
        <ele>465</ele>
        <time>2016-12-29T13:33:51Z</time>
      </trkpt>
      <trkpt lat="47.9116" lon="7.22065">
        <ele>466</ele>
        <time>2016-12-29T13:34:07Z</time>
      </trkpt>
      <trkpt lat="47.91158" lon="7.22048">
        <ele>468</ele>
        <time>2016-12-29T13:34:37Z</time>
      </trkpt>
      <trkpt lat="47.91142" lon="7.22043">
        <ele>469</ele>
        <time>2016-12-29T13:34:46Z</time>
      </trkpt>
      <trkpt lat="47.91137" lon="7.22012">
        <ele>469</ele>
        <time>2016-12-29T13:35:31Z</time>
      </trkpt>
      <trkpt lat="47.91151" lon="7.22016">
        <ele>473</ele>
        <time>2016-12-29T13:36:38Z</time>
      </trkpt>
      <trkpt lat="47.91169" lon="7.2202">
        <ele>474</ele>
        <time>2016-12-29T13:37:18Z</time>
      </trkpt>
      <trkpt lat="47.91198" lon="7.22032">
        <ele>486</ele>
        <time>2016-12-29T13:37:47Z</time>
      </trkpt>
      <trkpt lat="47.91216" lon="7.22028">
        <ele>493</ele>
        <time>2016-12-29T13:38:30Z</time>
      </trkpt>
      <trkpt lat="47.9122" lon="7.22012">
        <ele>496</ele>
        <time>2016-12-29T13:39:15Z</time>
      </trkpt>
      <trkpt lat="47.91242" lon="7.22018">
        <ele>498</ele>
        <time>2016-12-29T13:39:35Z</time>
      </trkpt>
      <trkpt lat="47.91248" lon="7.21997">
        <ele>505</ele>
        <time>2016-12-29T13:40:01Z</time>
      </trkpt>
      <trkpt lat="47.91256" lon="7.22005">
        <ele>505</ele>
        <time>2016-12-29T13:40:24Z</time>
      </trkpt>
      <trkpt lat="47.91271" lon="7.22004">
        <ele>506</ele>
        <time>2016-12-29T13:40:36Z</time>
      </trkpt>
      <trkpt lat="47.91274" lon="7.21983">
        <ele>509</ele>
        <time>2016-12-29T13:41:12Z</time>
      </trkpt>
      <trkpt lat="47.91259" lon="7.21982">
        <ele>512</ele>
        <time>2016-12-29T13:41:33Z</time>
      </trkpt>
      <trkpt lat="47.91253" lon="7.21974">
        <ele>513</ele>
        <time>2016-12-29T13:42:02Z</time>
      </trkpt>
      <trkpt lat="47.91233" lon="7.21975">
        <ele>516</ele>
        <time>2016-12-29T13:42:17Z</time>
      </trkpt>
      <trkpt lat="47.9124" lon="7.21962">
        <ele>516</ele>
        <time>2016-12-29T13:42:48Z</time>
      </trkpt>
      <trkpt lat="47.91242" lon="7.2194">
        <ele>517</ele>
        <time>2016-12-29T13:43:02Z</time>
      </trkpt>
      <trkpt lat="47.91242" lon="7.2191">
        <ele>522</ele>
        <time>2016-12-29T13:43:38Z</time>
      </trkpt>
      <trkpt lat="47.91253" lon="7.21893">
        <ele>524</ele>
        <time>2016-12-29T13:43:51Z</time>
      </trkpt>
      <trkpt lat="47.91266" lon="7.21883">
        <ele>526</ele>
        <time>2016-12-29T13:44:05Z</time>
      </trkpt>
      <trkpt lat="47.91274" lon="7.21864">
        <ele>526</ele>
        <time>2016-12-29T13:44:21Z</time>
      </trkpt>
      <trkpt lat="47.91289" lon="7.21863">
        <ele>526</ele>
        <time>2016-12-29T13:44:33Z</time>
      </trkpt>
      <trkpt lat="47.91301" lon="7.21841">
        <ele>526</ele>
        <time>2016-12-29T13:44:58Z</time>
      </trkpt>
      <trkpt lat="47.91308" lon="7.2184">
        <ele>525</ele>
        <time>2016-12-29T13:45:07Z</time>
      </trkpt>
      <trkpt lat="47.91313" lon="7.21831">
        <ele>525</ele>
        <time>2016-12-29T13:45:14Z</time>
      </trkpt>
      <trkpt lat="47.91318" lon="7.21823">
        <ele>522</ele>
        <time>2016-12-29T13:45:23Z</time>
      </trkpt>
      <trkpt lat="47.91338" lon="7.21805">
        <ele>519</ele>
        <time>2016-12-29T13:45:40Z</time>
      </trkpt>
      <trkpt lat="47.91345" lon="7.21797">
        <ele>519</ele>
        <time>2016-12-29T13:45:53Z</time>
      </trkpt>
      <trkpt lat="47.91352" lon="7.21799">
        <ele>520</ele>
        <time>2016-12-29T13:46:01Z</time>
      </trkpt>
      <trkpt lat="47.91359" lon="7.2179">
        <ele>520</ele>
        <time>2016-12-29T13:46:10Z</time>
      </trkpt>
      <trkpt lat="47.91364" lon="7.21775">
        <ele>518</ele>
        <time>2016-12-29T13:46:21Z</time>
      </trkpt>
      <trkpt lat="47.91372" lon="7.21769">
        <ele>517</ele>
        <time>2016-12-29T13:46:26Z</time>
      </trkpt>
      <trkpt lat="47.9138" lon="7.21768">
        <ele>516</ele>
        <time>2016-12-29T13:46:33Z</time>
      </trkpt>
      <trkpt lat="47.91387" lon="7.21764">
        <ele>517</ele>
        <time>2016-12-29T13:46:44Z</time>
      </trkpt>
      <trkpt lat="47.91395" lon="7.21766">
        <ele>517</ele>
        <time>2016-12-29T13:46:57Z</time>
      </trkpt>
      <trkpt lat="47.9141" lon="7.21757">
        <ele>518</ele>
        <time>2016-12-29T13:47:13Z</time>
      </trkpt>
      <trkpt lat="47.91418" lon="7.21749">
        <ele>518</ele>
        <time>2016-12-29T13:47:17Z</time>
      </trkpt>
      <trkpt lat="47.91422" lon="7.21739">
        <ele>518</ele>
        <time>2016-12-29T13:47:24Z</time>
      </trkpt>
      <trkpt lat="47.9143" lon="7.21733">
        <ele>517</ele>
        <time>2016-12-29T13:47:31Z</time>
      </trkpt>
      <trkpt lat="47.91451" lon="7.21722">
        <ele>517</ele>
        <time>2016-12-29T13:47:48Z</time>
      </trkpt>
      <trkpt lat="47.91455" lon="7.21706">
        <ele>517</ele>
        <time>2016-12-29T13:48:00Z</time>
      </trkpt>
      <trkpt lat="47.91464" lon="7.21696">
        <ele>514</ele>
        <time>2016-12-29T13:48:10Z</time>
      </trkpt>
      <trkpt lat="47.91471" lon="7.21693">
        <ele>514</ele>
        <time>2016-12-29T13:48:19Z</time>
      </trkpt>
      <trkpt lat="47.91487" lon="7.2169">
        <ele>514</ele>
        <time>2016-12-29T13:48:30Z</time>
      </trkpt>
      <trkpt lat="47.91497" lon="7.21674">
        <ele>513</ele>
        <time>2016-12-29T13:48:54Z</time>
      </trkpt>
      <trkpt lat="47.91507" lon="7.21658">
        <ele>513</ele>
        <time>2016-12-29T13:49:08Z</time>
      </trkpt>
      <trkpt lat="47.91537" lon="7.2164">
        <ele>511</ele>
        <time>2016-12-29T13:49:38Z</time>
      </trkpt>
      <trkpt lat="47.9155" lon="7.2163">
        <ele>511</ele>
        <time>2016-12-29T13:49:51Z</time>
      </trkpt>
      <trkpt lat="47.91566" lon="7.21628">
        <ele>510</ele>
        <time>2016-12-29T13:50:07Z</time>
      </trkpt>
      <trkpt lat="47.91579" lon="7.21613">
        <ele>510</ele>
        <time>2016-12-29T13:50:18Z</time>
      </trkpt>
      <trkpt lat="47.91595" lon="7.2162">
        <ele>508</ele>
        <time>2016-12-29T13:50:55Z</time>
      </trkpt>
      <trkpt lat="47.91626" lon="7.21642">
        <ele>514</ele>
        <time>2016-12-29T13:51:32Z</time>
      </trkpt>
      <trkpt lat="47.91666" lon="7.21674">
        <ele>524</ele>
        <time>2016-12-29T13:52:13Z</time>
      </trkpt>
      <trkpt lat="47.91679" lon="7.21687">
        <ele>525</ele>
        <time>2016-12-29T13:52:26Z</time>
      </trkpt>
      <trkpt lat="47.91693" lon="7.21684">
        <ele>527</ele>
        <time>2016-12-29T13:52:43Z</time>
      </trkpt>
      <trkpt lat="47.91708" lon="7.21691">
        <ele>528</ele>
        <time>2016-12-29T13:52:56Z</time>
      </trkpt>
      <trkpt lat="47.91741" lon="7.21703">
        <ele>531</ele>
        <time>2016-12-29T13:53:38Z</time>
      </trkpt>
      <trkpt lat="47.91785" lon="7.2172">
        <ele>534</ele>
        <time>2016-12-29T13:54:19Z</time>
      </trkpt>
      <trkpt lat="47.91829" lon="7.21728">
        <ele>536</ele>
        <time>2016-12-29T13:54:59Z</time>
      </trkpt>
      <trkpt lat="47.91865" lon="7.21738">
        <ele>535</ele>
        <time>2016-12-29T13:55:35Z</time>
      </trkpt>
      <trkpt lat="47.91873" lon="7.21738">
        <ele>535</ele>
        <time>2016-12-29T13:55:39Z</time>
      </trkpt>
      <trkpt lat="47.91884" lon="7.2173">
        <ele>535</ele>
        <time>2016-12-29T13:55:44Z</time>
      </trkpt>
      <trkpt lat="47.91892" lon="7.21729">
        <ele>533</ele>
        <time>2016-12-29T13:55:53Z</time>
      </trkpt>
      <trkpt lat="47.91919" lon="7.21722">
        <ele>532</ele>
        <time>2016-12-29T13:56:27Z</time>
      </trkpt>
      <trkpt lat="47.9193" lon="7.21725">
        <ele>531</ele>
        <time>2016-12-29T13:56:38Z</time>
      </trkpt>
      <trkpt lat="47.91941" lon="7.2173">
        <ele>532</ele>
        <time>2016-12-29T13:56:50Z</time>
      </trkpt>
      <trkpt lat="47.91966" lon="7.21754">
        <ele>536</ele>
        <time>2016-12-29T13:57:16Z</time>
      </trkpt>
      <trkpt lat="47.9198" lon="7.21755">
        <ele>537</ele>
        <time>2016-12-29T13:57:32Z</time>
      </trkpt>
      <trkpt lat="47.92026" lon="7.21765">
        <ele>540</ele>
        <time>2016-12-29T13:58:12Z</time>
      </trkpt>
      <trkpt lat="47.92033" lon="7.21769">
        <ele>540</ele>
        <time>2016-12-29T13:58:20Z</time>
      </trkpt>
      <trkpt lat="47.92064" lon="7.21756">
        <ele>541</ele>
        <time>2016-12-29T13:58:42Z</time>
      </trkpt>
      <trkpt lat="47.92079" lon="7.21744">
        <ele>540</ele>
        <time>2016-12-29T13:58:59Z</time>
      </trkpt>
      <trkpt lat="47.92094" lon="7.21743">
        <ele>541</ele>
        <time>2016-12-29T13:59:15Z</time>
      </trkpt>
      <trkpt lat="47.92117" lon="7.21728">
        <ele>543</ele>
        <time>2016-12-29T13:59:39Z</time>
      </trkpt>
      <trkpt lat="47.9214" lon="7.21696">
        <ele>545</ele>
        <time>2016-12-29T14:00:16Z</time>
      </trkpt>
      <trkpt lat="47.9214" lon="7.21674">
        <ele>543</ele>
        <time>2016-12-29T14:00:30Z</time>
      </trkpt>
      <trkpt lat="47.92144" lon="7.21652">
        <ele>542</ele>
        <time>2016-12-29T14:00:45Z</time>
      </trkpt>
      <trkpt lat="47.92136" lon="7.21634">
        <ele>539</ele>
        <time>2016-12-29T14:00:53Z</time>
      </trkpt>
      <trkpt lat="47.92134" lon="7.2161">
        <ele>537</ele>
        <time>2016-12-29T14:01:06Z</time>
      </trkpt>
      <trkpt lat="47.92149" lon="7.21572">
        <ele>534</ele>
        <time>2016-12-29T14:01:27Z</time>
      </trkpt>
      <trkpt lat="47.92149" lon="7.21549">
        <ele>533</ele>
        <time>2016-12-29T14:01:41Z</time>
      </trkpt>
      <trkpt lat="47.92156" lon="7.2153">
        <ele>531</ele>
        <time>2016-12-29T14:01:55Z</time>
      </trkpt>
      <trkpt lat="47.92158" lon="7.21507">
        <ele>530</ele>
        <time>2016-12-29T14:02:09Z</time>
      </trkpt>
      <trkpt lat="47.92154" lon="7.21484">
        <ele>529</ele>
        <time>2016-12-29T14:02:21Z</time>
      </trkpt>
      <trkpt lat="47.92157" lon="7.2146">
        <ele>528</ele>
        <time>2016-12-29T14:02:38Z</time>
      </trkpt>
      <trkpt lat="47.92161" lon="7.21431">
        <ele>528</ele>
        <time>2016-12-29T14:02:51Z</time>
      </trkpt>
      <trkpt lat="47.92153" lon="7.2141">
        <ele>528</ele>
        <time>2016-12-29T14:03:05Z</time>
      </trkpt>
      <trkpt lat="47.92162" lon="7.21391">
        <ele>530</ele>
        <time>2016-12-29T14:03:15Z</time>
      </trkpt>
      <trkpt lat="47.92186" lon="7.21331">
        <ele>540</ele>
        <time>2016-12-29T14:03:57Z</time>
      </trkpt>
      <trkpt lat="47.92199" lon="7.21319">
        <ele>541</ele>
        <time>2016-12-29T14:04:11Z</time>
      </trkpt>
      <trkpt lat="47.92208" lon="7.21301">
        <ele>541</ele>
        <time>2016-12-29T14:04:21Z</time>
      </trkpt>
      <trkpt lat="47.92222" lon="7.21293">
        <ele>541</ele>
        <time>2016-12-29T14:04:37Z</time>
      </trkpt>
      <trkpt lat="47.92266" lon="7.21281">
        <ele>546</ele>
        <time>2016-12-29T14:05:15Z</time>
      </trkpt>
      <trkpt lat="47.92281" lon="7.21281">
        <ele>548</ele>
        <time>2016-12-29T14:05:27Z</time>
      </trkpt>
      <trkpt lat="47.92311" lon="7.21257">
        <ele>549</ele>
        <time>2016-12-29T14:06:00Z</time>
      </trkpt>
      <trkpt lat="47.92328" lon="7.21258">
        <ele>549</ele>
        <time>2016-12-29T14:06:13Z</time>
      </trkpt>
      <trkpt lat="47.92368" lon="7.21221">
        <ele>549</ele>
        <time>2016-12-29T14:06:53Z</time>
      </trkpt>
      <trkpt lat="47.92394" lon="7.21192">
        <ele>547</ele>
        <time>2016-12-29T14:07:25Z</time>
      </trkpt>
      <trkpt lat="47.92432" lon="7.21158">
        <ele>545</ele>
        <time>2016-12-29T14:08:03Z</time>
      </trkpt>
      <trkpt lat="47.92445" lon="7.21147">
        <ele>544</ele>
        <time>2016-12-29T14:08:21Z</time>
      </trkpt>
      <trkpt lat="47.92489" lon="7.21143">
        <ele>545</ele>
        <time>2016-12-29T14:08:59Z</time>
      </trkpt>
      <trkpt lat="47.92506" lon="7.21134">
        <ele>545</ele>
        <time>2016-12-29T14:09:09Z</time>
      </trkpt>
      <trkpt lat="47.9255" lon="7.21113">
        <ele>542</ele>
        <time>2016-12-29T14:09:51Z</time>
      </trkpt>
      <trkpt lat="47.92577" lon="7.21098">
        <ele>540</ele>
        <time>2016-12-29T14:10:19Z</time>
      </trkpt>
      <trkpt lat="47.92592" lon="7.21096">
        <ele>540</ele>
        <time>2016-12-29T14:10:35Z</time>
      </trkpt>
      <trkpt lat="47.92633" lon="7.21072">
        <ele>539</ele>
        <time>2016-12-29T14:11:09Z</time>
      </trkpt>
      <trkpt lat="47.92659" lon="7.21054">
        <ele>541</ele>
        <time>2016-12-29T14:11:37Z</time>
      </trkpt>
      <trkpt lat="47.92692" lon="7.21061">
        <ele>540</ele>
        <time>2016-12-29T14:12:12Z</time>
      </trkpt>
      <trkpt lat="47.92736" lon="7.21068">
        <ele>540</ele>
        <time>2016-12-29T14:12:50Z</time>
      </trkpt>
      <trkpt lat="47.9273" lon="7.21047">
        <ele>541</ele>
        <time>2016-12-29T14:13:11Z</time>
      </trkpt>
      <trkpt lat="47.92691" lon="7.2101">
        <ele>543</ele>
        <time>2016-12-29T14:13:47Z</time>
      </trkpt>
      <trkpt lat="47.92678" lon="7.21">
        <ele>544</ele>
        <time>2016-12-29T14:14:01Z</time>
      </trkpt>
      <trkpt lat="47.92652" lon="7.20961">
        <ele>542</ele>
        <time>2016-12-29T14:14:34Z</time>
      </trkpt>
      <trkpt lat="47.92637" lon="7.20959">
        <ele>540</ele>
        <time>2016-12-29T14:14:48Z</time>
      </trkpt>
      <trkpt lat="47.92611" lon="7.20924">
        <ele>536</ele>
        <time>2016-12-29T14:15:21Z</time>
      </trkpt>
      <trkpt lat="47.92605" lon="7.20917">
        <ele>534</ele>
        <time>2016-12-29T14:15:27Z</time>
      </trkpt>
      <trkpt lat="47.92602" lon="7.20895">
        <ele>532</ele>
        <time>2016-12-29T14:15:45Z</time>
      </trkpt>
      <trkpt lat="47.92585" lon="7.20882">
        <ele>528</ele>
        <time>2016-12-29T14:16:12Z</time>
      </trkpt>
      <trkpt lat="47.92572" lon="7.20875">
        <ele>526</ele>
        <time>2016-12-29T14:16:17Z</time>
      </trkpt>
      <trkpt lat="47.92553" lon="7.20864">
        <ele>521</ele>
        <time>2016-12-29T14:16:44Z</time>
      </trkpt>
      <trkpt lat="47.92555" lon="7.20853">
        <ele>520</ele>
        <time>2016-12-29T14:16:50Z</time>
      </trkpt>
      <trkpt lat="47.92549" lon="7.20845">
        <ele>519</ele>
        <time>2016-12-29T14:16:57Z</time>
      </trkpt>
      <trkpt lat="47.9253" lon="7.20829">
        <ele>513</ele>
        <time>2016-12-29T14:17:26Z</time>
      </trkpt>
      <trkpt lat="47.92522" lon="7.20837">
        <ele>511</ele>
        <time>2016-12-29T14:17:42Z</time>
      </trkpt>
      <trkpt lat="47.92515" lon="7.20832">
        <ele>508</ele>
        <time>2016-12-29T14:17:53Z</time>
      </trkpt>
      <trkpt lat="47.9251" lon="7.20843">
        <ele>507</ele>
        <time>2016-12-29T14:18:09Z</time>
      </trkpt>
      <trkpt lat="47.92507" lon="7.20854">
        <ele>507</ele>
        <time>2016-12-29T14:18:15Z</time>
      </trkpt>
      <trkpt lat="47.92498" lon="7.20858">
        <ele>507</ele>
        <time>2016-12-29T14:18:21Z</time>
      </trkpt>
      <trkpt lat="47.9249" lon="7.20859">
        <ele>506</ele>
        <time>2016-12-29T14:18:25Z</time>
      </trkpt>
      <trkpt lat="47.92485" lon="7.20866">
        <ele>505</ele>
        <time>2016-12-29T14:18:33Z</time>
      </trkpt>
      <trkpt lat="47.92466" lon="7.20873">
        <ele>504</ele>
        <time>2016-12-29T14:18:44Z</time>
      </trkpt>
      <trkpt lat="47.92457" lon="7.20876">
        <ele>502</ele>
        <time>2016-12-29T14:18:52Z</time>
      </trkpt>
      <trkpt lat="47.92413" lon="7.20876">
        <ele>493</ele>
        <time>2016-12-29T14:19:27Z</time>
      </trkpt>
      <trkpt lat="47.92406" lon="7.20875">
        <ele>491</ele>
        <time>2016-12-29T14:19:30Z</time>
      </trkpt>
      <trkpt lat="47.92366" lon="7.20895">
        <ele>484</ele>
        <time>2016-12-29T14:20:03Z</time>
      </trkpt>
      <trkpt lat="47.92329" lon="7.20897">
        <ele>477</ele>
        <time>2016-12-29T14:20:35Z</time>
      </trkpt>
      <trkpt lat="47.92286" lon="7.20905">
        <ele>469</ele>
        <time>2016-12-29T14:21:05Z</time>
      </trkpt>
      <trkpt lat="47.92273" lon="7.20907">
        <ele>469</ele>
        <time>2016-12-29T14:21:18Z</time>
      </trkpt>
      <trkpt lat="47.92265" lon="7.20912">
        <ele>469</ele>
        <time>2016-12-29T14:21:27Z</time>
      </trkpt>
      <trkpt lat="47.92259" lon="7.20917">
        <ele>469</ele>
        <time>2016-12-29T14:21:32Z</time>
      </trkpt>
      <trkpt lat="47.92233" lon="7.20934">
        <ele>472</ele>
        <time>2016-12-29T14:21:51Z</time>
      </trkpt>
      <trkpt lat="47.92215" lon="7.20945">
        <ele>471</ele>
        <time>2016-12-29T14:22:07Z</time>
      </trkpt>
      <trkpt lat="47.92207" lon="7.20949">
        <ele>473</ele>
        <time>2016-12-29T14:22:14Z</time>
      </trkpt>
      <trkpt lat="47.92195" lon="7.20948">
        <ele>472</ele>
        <time>2016-12-29T14:22:22Z</time>
      </trkpt>
      <trkpt lat="47.92189" lon="7.20963">
        <ele>473</ele>
        <time>2016-12-29T14:22:26Z</time>
      </trkpt>
      <trkpt lat="47.92181" lon="7.20962">
        <ele>473</ele>
        <time>2016-12-29T14:22:32Z</time>
      </trkpt>
      <trkpt lat="47.92169" lon="7.20959">
        <ele>473</ele>
        <time>2016-12-29T14:22:38Z</time>
      </trkpt>
      <trkpt lat="47.92161" lon="7.20956">
        <ele>470</ele>
        <time>2016-12-29T14:22:44Z</time>
      </trkpt>
      <trkpt lat="47.92153" lon="7.20961">
        <ele>470</ele>
        <time>2016-12-29T14:22:51Z</time>
      </trkpt>
      <trkpt lat="47.92116" lon="7.20981">
        <ele>471</ele>
        <time>2016-12-29T14:23:22Z</time>
      </trkpt>
      <trkpt lat="47.92104" lon="7.20981">
        <ele>471</ele>
        <time>2016-12-29T14:23:29Z</time>
      </trkpt>
      <trkpt lat="47.92057" lon="7.20987">
        <ele>464</ele>
        <time>2016-12-29T14:24:01Z</time>
      </trkpt>
      <trkpt lat="47.92033" lon="7.20999">
        <ele>461</ele>
        <time>2016-12-29T14:24:17Z</time>
      </trkpt>
      <trkpt lat="47.92031" lon="7.2101">
        <ele>461</ele>
        <time>2016-12-29T14:24:28Z</time>
      </trkpt>
      <trkpt lat="47.92006" lon="7.21071">
        <ele>461</ele>
        <time>2016-12-29T14:25:05Z</time>
      </trkpt>
      <trkpt lat="47.91989" lon="7.21125">
        <ele>456</ele>
        <time>2016-12-29T14:25:37Z</time>
      </trkpt>
      <trkpt lat="47.91986" lon="7.21154">
        <ele>454</ele>
        <time>2016-12-29T14:25:50Z</time>
      </trkpt>
      <trkpt lat="47.91981" lon="7.21163">
        <ele>452</ele>
        <time>2016-12-29T14:25:55Z</time>
      </trkpt>
      <trkpt lat="47.91982" lon="7.21179">
        <ele>451</ele>
        <time>2016-12-29T14:26:03Z</time>
      </trkpt>
      <trkpt lat="47.91982" lon="7.21198">
        <ele>451</ele>
        <time>2016-12-29T14:26:09Z</time>
      </trkpt>
      <trkpt lat="47.91976" lon="7.21202">
        <ele>451</ele>
        <time>2016-12-29T14:26:15Z</time>
      </trkpt>
      <trkpt lat="47.91966" lon="7.21223">
        <ele>448</ele>
        <time>2016-12-29T14:26:31Z</time>
      </trkpt>
      <trkpt lat="47.91967" lon="7.21237">
        <ele>447</ele>
        <time>2016-12-29T14:26:44Z</time>
      </trkpt>
      <trkpt lat="47.91965" lon="7.21248">
        <ele>448</ele>
        <time>2016-12-29T14:26:51Z</time>
      </trkpt>
      <trkpt lat="47.91956" lon="7.21258">
        <ele>447</ele>
        <time>2016-12-29T14:26:59Z</time>
      </trkpt>
      <trkpt lat="47.91951" lon="7.21267">
        <ele>445</ele>
        <time>2016-12-29T14:27:07Z</time>
      </trkpt>
      <trkpt lat="47.91947" lon="7.21276">
        <ele>445</ele>
        <time>2016-12-29T14:27:12Z</time>
      </trkpt>
      <trkpt lat="47.91946" lon="7.21287">
        <ele>444</ele>
        <time>2016-12-29T14:27:20Z</time>
      </trkpt>
      <trkpt lat="47.91942" lon="7.21296">
        <ele>444</ele>
        <time>2016-12-29T14:27:27Z</time>
      </trkpt>
      <trkpt lat="47.91902" lon="7.21335">
        <ele>441</ele>
        <time>2016-12-29T14:28:03Z</time>
      </trkpt>
      <trkpt lat="47.91893" lon="7.21338">
        <ele>440</ele>
        <time>2016-12-29T14:28:11Z</time>
      </trkpt>
      <trkpt lat="47.91886" lon="7.21341">
        <ele>440</ele>
        <time>2016-12-29T14:28:16Z</time>
      </trkpt>
      <trkpt lat="47.91878" lon="7.21342">
        <ele>439</ele>
        <time>2016-12-29T14:28:22Z</time>
      </trkpt>
      <trkpt lat="47.91869" lon="7.2135">
        <ele>440</ele>
        <time>2016-12-29T14:28:30Z</time>
      </trkpt>
      <trkpt lat="47.91861" lon="7.21349">
        <ele>440</ele>
        <time>2016-12-29T14:28:38Z</time>
      </trkpt>
      <trkpt lat="47.91852" lon="7.21352">
        <ele>440</ele>
        <time>2016-12-29T14:28:44Z</time>
      </trkpt>
      <trkpt lat="47.91843" lon="7.2135">
        <ele>441</ele>
        <time>2016-12-29T14:28:52Z</time>
      </trkpt>
      <trkpt lat="47.91836" lon="7.21337">
        <ele>440</ele>
        <time>2016-12-29T14:28:56Z</time>
      </trkpt>
      <trkpt lat="47.91837" lon="7.21317">
        <ele>437</ele>
        <time>2016-12-29T14:29:01Z</time>
      </trkpt>
      <trkpt lat="47.91843" lon="7.21312">
        <ele>434</ele>
        <time>2016-12-29T14:29:06Z</time>
      </trkpt>
      <trkpt lat="47.91852" lon="7.21308">
        <ele>431</ele>
        <time>2016-12-29T14:29:16Z</time>
      </trkpt>
      <trkpt lat="47.91858" lon="7.21297">
        <ele>429</ele>
        <time>2016-12-29T14:29:20Z</time>
      </trkpt>
      <trkpt lat="47.91865" lon="7.21292">
        <ele>426</ele>
        <time>2016-12-29T14:29:27Z</time>
      </trkpt>
      <trkpt lat="47.91878" lon="7.21252">
        <ele>418</ele>
        <time>2016-12-29T14:29:57Z</time>
      </trkpt>
      <trkpt lat="47.91882" lon="7.21207">
        <ele>411</ele>
        <time>2016-12-29T14:30:28Z</time>
      </trkpt>
      <trkpt lat="47.91875" lon="7.21156">
        <ele>402</ele>
        <time>2016-12-29T14:31:00Z</time>
      </trkpt>
      <trkpt lat="47.91876" lon="7.21144">
        <ele>401</ele>
        <time>2016-12-29T14:31:07Z</time>
      </trkpt>
      <trkpt lat="47.9187" lon="7.21088">
        <ele>391</ele>
        <time>2016-12-29T14:31:43Z</time>
      </trkpt>
      <trkpt lat="47.91868" lon="7.21038">
        <ele>384</ele>
        <time>2016-12-29T14:32:22Z</time>
      </trkpt>
      <trkpt lat="47.91868" lon="7.21014">
        <ele>382</ele>
        <time>2016-12-29T14:32:36Z</time>
      </trkpt>
      <trkpt lat="47.91868" lon="7.21005">
        <ele>382</ele>
        <time>2016-12-29T14:32:43Z</time>
      </trkpt>
      <trkpt lat="47.91862" lon="7.20986">
        <ele>381</ele>
        <time>2016-12-29T14:32:57Z</time>
      </trkpt>
      <trkpt lat="47.91848" lon="7.2093">
        <ele>373</ele>
        <time>2016-12-29T14:33:33Z</time>
      </trkpt>
      <trkpt lat="47.91846" lon="7.20918">
        <ele>371</ele>
        <time>2016-12-29T14:33:45Z</time>
      </trkpt>
      <trkpt lat="47.91845" lon="7.2091">
        <ele>371</ele>
        <time>2016-12-29T14:33:48Z</time>
      </trkpt>
      <trkpt lat="47.91832" lon="7.2086">
        <ele>367</ele>
        <time>2016-12-29T14:34:20Z</time>
      </trkpt>
      <trkpt lat="47.91832" lon="7.20851">
        <ele>366</ele>
        <time>2016-12-29T14:34:28Z</time>
      </trkpt>
      <trkpt lat="47.91823" lon="7.20839">
        <ele>365</ele>
        <time>2016-12-29T14:34:36Z</time>
      </trkpt>
      <trkpt lat="47.91818" lon="7.20831">
        <ele>363</ele>
        <time>2016-12-29T14:34:39Z</time>
      </trkpt>
      <trkpt lat="47.91818" lon="7.20822">
        <ele>361</ele>
        <time>2016-12-29T14:34:46Z</time>
      </trkpt>
      <trkpt lat="47.91805" lon="7.2079">
        <ele>357</ele>
        <time>2016-12-29T14:35:08Z</time>
      </trkpt>
      <trkpt lat="47.91804" lon="7.20773">
        <ele>357</ele>
        <time>2016-12-29T14:35:19Z</time>
      </trkpt>
      <trkpt lat="47.91802" lon="7.20756">
        <ele>356</ele>
        <time>2016-12-29T14:35:30Z</time>
      </trkpt>
      <trkpt lat="47.91788" lon="7.20719">
        <ele>349</ele>
        <time>2016-12-29T14:36:01Z</time>
      </trkpt>
      <trkpt lat="47.91785" lon="7.20671">
        <ele>343</ele>
        <time>2016-12-29T14:36:31Z</time>
      </trkpt>
      <trkpt lat="47.9178" lon="7.20666">
        <ele>342</ele>
        <time>2016-12-29T14:36:39Z</time>
      </trkpt>
      <trkpt lat="47.91775" lon="7.20664">
        <ele>342</ele>
        <time>2016-12-29T14:36:42Z</time>
      </trkpt>
      <trkpt lat="47.91769" lon="7.20671">
        <ele>340</ele>
        <time>2016-12-29T14:36:49Z</time>
      </trkpt>
      <trkpt lat="47.91755" lon="7.20707">
        <ele>337</ele>
        <time>2016-12-29T14:37:18Z</time>
      </trkpt>
      <trkpt lat="47.91753" lon="7.2074">
        <ele>337</ele>
        <time>2016-12-29T14:37:39Z</time>
      </trkpt>
      <trkpt lat="47.91754" lon="7.20762">
        <ele>338</ele>
        <time>2016-12-29T14:37:51Z</time>
      </trkpt>
      <trkpt lat="47.91754" lon="7.20783">
        <ele>338</ele>
        <time>2016-12-29T14:38:06Z</time>
      </trkpt>
      <trkpt lat="47.91739" lon="7.20782">
        <ele>337</ele>
        <time>2016-12-29T14:38:26Z</time>
      </trkpt>
      <trkpt lat="47.91731" lon="7.20765">
        <ele>336</ele>
        <time>2016-12-29T14:38:41Z</time>
      </trkpt>
      <trkpt lat="47.9171" lon="7.20705">
        <ele>325</ele>
        <time>2016-12-29T14:39:26Z</time>
      </trkpt>
      <trkpt lat="47.91691" lon="7.20648">
        <ele>318</ele>
        <time>2016-12-29T14:40:04Z</time>
      </trkpt>
      <trkpt lat="47.9169" lon="7.20624">
        <ele>315</ele>
        <time>2016-12-29T14:40:21Z</time>
      </trkpt>
      <trkpt lat="47.91685" lon="7.20604">
        <ele>315</ele>
        <time>2016-12-29T14:40:34Z</time>
      </trkpt>
      <trkpt lat="47.91668" lon="7.20543">
        <ele>309</ele>
        <time>2016-12-29T14:41:15Z</time>
      </trkpt>
      <trkpt lat="47.91676" lon="7.20524">
        <ele>308</ele>
        <time>2016-12-29T14:41:27Z</time>
      </trkpt>
      <trkpt lat="47.91686" lon="7.20507">
        <ele>308</ele>
        <time>2016-12-29T14:41:39Z</time>
      </trkpt>
      <trkpt lat="47.91679" lon="7.20488">
        <ele>308</ele>
        <time>2016-12-29T14:41:55Z</time>
      </trkpt>
      <trkpt lat="47.91668" lon="7.20473">
        <ele>308</ele>
        <time>2016-12-29T14:42:11Z</time>
      </trkpt>
      <trkpt lat="47.91657" lon="7.20486">
        <ele>308</ele>
        <time>2016-12-29T14:42:27Z</time>
      </trkpt>
      <trkpt lat="47.91639" lon="7.20547">
        <ele>306</ele>
        <time>2016-12-29T14:43:08Z</time>
      </trkpt>
      <trkpt lat="47.91629" lon="7.20591">
        <ele>306</ele>
        <time>2016-12-29T14:43:40Z</time>
      </trkpt>
      <trkpt lat="47.91613" lon="7.20653">
        <ele>306</ele>
        <time>2016-12-29T14:44:14Z</time>
      </trkpt>
      <trkpt lat="47.91595" lon="7.20712">
        <ele>305</ele>
        <time>2016-12-29T14:44:53Z</time>
      </trkpt>
      <trkpt lat="47.9157" lon="7.20736">
        <ele>304</ele>
        <time>2016-12-29T14:45:20Z</time>
      </trkpt>
      <trkpt lat="47.91553" lon="7.20734">
        <ele>304</ele>
        <time>2016-12-29T14:45:32Z</time>
      </trkpt>
      <trkpt lat="47.91547" lon="7.20755">
        <ele>303</ele>
        <time>2016-12-29T14:45:43Z</time>
      </trkpt>
      <trkpt lat="47.91542" lon="7.20778">
        <ele>303</ele>
        <time>2016-12-29T14:45:56Z</time>
      </trkpt>
      <trkpt lat="47.91529" lon="7.20787">
        <ele>303</ele>
        <time>2016-12-29T14:46:08Z</time>
      </trkpt>
      <trkpt lat="47.91515" lon="7.20787">
        <ele>302</ele>
        <time>2016-12-29T14:46:17Z</time>
      </trkpt>
      <trkpt lat="47.91477" lon="7.20821">
        <ele>302</ele>
        <time>2016-12-29T14:46:54Z</time>
      </trkpt>
      <trkpt lat="47.91439" lon="7.20858">
        <ele>301</ele>
        <time>2016-12-29T14:47:32Z</time>
      </trkpt>
      <trkpt lat="47.91396" lon="7.20878">
        <ele>300</ele>
        <time>2016-12-29T14:48:10Z</time>
      </trkpt>
      <trkpt lat="47.91366" lon="7.20886">
        <ele>300</ele>
        <time>2016-12-29T14:48:37Z</time>
      </trkpt>
      <trkpt lat="47.91357" lon="7.20905">
        <ele>300</ele>
        <time>2016-12-29T14:48:49Z</time>
      </trkpt>
      <trkpt lat="47.91329" lon="7.20924">
        <ele>299</ele>
        <time>2016-12-29T14:49:12Z</time>
      </trkpt>
      <trkpt lat="47.91297" lon="7.20972">
        <ele>298</ele>
        <time>2016-12-29T14:49:50Z</time>
      </trkpt>
      <trkpt lat="47.91262" lon="7.21012">
        <ele>297</ele>
        <time>2016-12-29T14:50:32Z</time>
      </trkpt>
      <trkpt lat="47.91237" lon="7.21036">
        <ele>296</ele>
        <time>2016-12-29T14:50:57Z</time>
      </trkpt>
      <trkpt lat="47.91235" lon="7.21025">
        <ele>296</ele>
        <time>2016-12-29T14:51:18Z</time>
      </trkpt>
    </trkseg>
  </trk>
</gpx>